createdAt,value
2016-10-10T00:00:56.682Z,0
2016-10-10T00:01:41.779Z,0
2016-10-10T00:02:41.802Z,0
2016-10-10T00:03:41.819Z,0
2016-10-10T00:04:41.838Z,0
2016-10-10T00:05:41.858Z,0
2016-10-10T00:06:41.934Z,0
2016-10-10T00:07:41.911Z,0
2016-10-10T00:09:41.951Z,0
2016-10-10T00:10:42.017Z,0
2016-10-10T00:11:56.911Z,0
2016-10-10T00:12:41.997Z,0
2016-10-10T00:13:56.943Z,0
2016-10-10T00:14:42.045Z,0
2016-10-10T00:15:56.982Z,0
2016-10-10T00:17:42.103Z,0
2016-10-10T00:19:42.152Z,0
2016-10-10T00:20:42.164Z,0
2016-10-10T00:21:42.195Z,0
2016-10-10T00:22:42.206Z,0
2016-10-10T00:23:42.277Z,0
2016-10-10T00:24:42.239Z,0
2016-10-10T00:25:42.270Z,0
2016-10-10T00:26:42.284Z,0
2016-10-10T00:27:42.672Z,0
2016-10-10T00:28:42.331Z,0
2016-10-10T00:29:42.347Z,0
2016-10-10T00:30:57.340Z,0
2016-10-10T00:31:42.601Z,0
2016-10-10T00:32:42.408Z,0
2016-10-10T00:33:42.533Z,0
2016-10-10T00:34:42.446Z,0
2016-10-10T00:35:42.468Z,0
2016-10-10T00:36:42.501Z,0
2016-10-10T00:37:42.515Z,0
2016-10-10T00:38:42.581Z,0
2016-10-10T00:39:42.545Z,0
2016-10-10T00:40:42.571Z,0
2016-10-10T00:41:42.592Z,0
2016-10-10T00:42:42.624Z,0
2016-10-10T00:43:57.558Z,0
2016-10-10T00:45:42.680Z,0
2016-10-10T00:46:42.690Z,0
2016-10-10T00:47:57.631Z,0
2016-10-10T00:48:42.737Z,0
2016-10-10T00:49:42.756Z,0
2016-10-10T00:50:42.827Z,0
2016-10-10T00:51:42.789Z,0
2016-10-10T00:52:42.820Z,0
2016-10-10T00:53:57.764Z,0
2016-10-10T00:54:42.852Z,0
2016-10-10T00:55:42.883Z,0
2016-10-10T00:56:42.894Z,0
2016-10-10T00:57:42.913Z,0
2016-10-10T00:58:42.946Z,0
2016-10-10T00:59:42.956Z,0
2016-10-10T01:00:42.969Z,0
2016-10-10T01:01:57.918Z,0
2016-10-10T01:02:57.939Z,0
2016-10-10T01:04:43.069Z,0
2016-10-10T01:05:43.079Z,0
2016-10-10T01:06:43.101Z,0
2016-10-10T01:07:43.126Z,0
2016-10-10T01:08:43.191Z,0
2016-10-10T01:09:43.152Z,0
2016-10-10T01:10:43.237Z,0
2016-10-10T01:11:43.298Z,0
2016-10-10T01:12:43.219Z,0
2016-10-10T01:13:43.294Z,0
2016-10-10T01:14:43.261Z,0
2016-10-10T01:15:58.457Z,0
2016-10-10T01:16:58.220Z,0
2016-10-10T01:17:43.321Z,0
2016-10-10T01:18:58.260Z,0
2016-10-10T01:19:43.365Z,0
2016-10-10T01:20:43.382Z,0
2016-10-10T01:21:43.703Z,0
2016-10-10T01:22:43.423Z,0
2016-10-10T01:23:43.444Z,0
2016-10-10T01:24:43.468Z,0
2016-10-10T01:25:44.093Z,0
2016-10-10T01:26:43.504Z,0
2016-10-10T01:27:43.527Z,0
2016-10-10T01:28:43.546Z,0
2016-10-10T01:29:43.566Z,0
2016-10-10T01:30:43.588Z,0
2016-10-10T01:31:43.605Z,0
2016-10-10T01:32:43.629Z,0
2016-10-10T01:33:43.894Z,0
2016-10-10T01:34:58.583Z,0
2016-10-10T01:35:43.693Z,0
2016-10-10T01:36:43.704Z,0
2016-10-10T01:37:43.724Z,0
2016-10-10T01:38:43.745Z,0
2016-10-10T01:39:43.775Z,0
2016-10-10T01:40:43.850Z,0
2016-10-10T01:42:43.822Z,0
2016-10-10T01:43:43.850Z,0
2016-10-10T01:44:43.869Z,0
2016-10-10T01:45:43.895Z,0
2016-10-10T01:46:43.905Z,0
2016-10-10T01:47:43.929Z,0
2016-10-10T01:48:43.966Z,0
2016-10-10T01:49:44.069Z,0
2016-10-10T01:50:58.923Z,0
2016-10-10T01:51:44.015Z,0
2016-10-10T01:52:44.085Z,0
2016-10-10T01:53:44.054Z,0
2016-10-10T01:55:44.093Z,0
2016-10-10T01:56:44.117Z,0
2016-10-10T01:57:44.380Z,0
2016-10-10T01:58:44.157Z,0
2016-10-10T01:59:44.177Z,0
2016-10-10T02:00:44.256Z,0
2016-10-10T02:01:44.216Z,0
2016-10-10T02:02:59.159Z,0
2016-10-10T02:03:44.255Z,0
2016-10-10T02:04:44.279Z,0
2016-10-10T02:05:59.220Z,0
2016-10-10T02:06:44.321Z,0
2016-10-10T02:07:44.343Z,0
2016-10-10T02:08:44.378Z,0
2016-10-10T02:09:44.431Z,0
2016-10-10T02:10:44.400Z,0
2016-10-10T02:11:44.423Z,0
2016-10-10T02:12:44.438Z,0
2016-10-10T02:13:44.466Z,0
2016-10-10T02:14:44.480Z,0
2016-10-10T02:15:44.546Z,0
2016-10-10T02:16:44.530Z,0
2016-10-10T02:17:44.540Z,0
2016-10-10T02:18:44.562Z,0
2016-10-10T02:19:44.580Z,0
2016-10-10T02:20:59.530Z,0
2016-10-10T02:21:44.631Z,0
2016-10-10T02:22:44.903Z,0
2016-10-10T02:23:44.669Z,0
2016-10-10T02:24:44.701Z,0
2016-10-10T02:25:44.704Z,0
2016-10-10T02:26:44.776Z,0
2016-10-10T02:27:44.744Z,0
2016-10-10T02:28:44.768Z,0
2016-10-10T02:29:44.788Z,0
2016-10-10T02:30:44.808Z,0
2016-10-10T02:33:44.893Z,0
2016-10-10T02:34:45.143Z,0
2016-10-10T02:35:44.913Z,0
2016-10-10T02:36:44.932Z,0
2016-10-10T02:38:45.218Z,0
2016-10-10T02:39:44.989Z,0
2016-10-10T02:41:45.027Z,0
2016-10-10T02:42:45.056Z,0
2016-10-10T02:43:45.073Z,0
2016-10-10T02:44:45.092Z,0
2016-10-10T02:45:45.117Z,0
2016-10-10T02:46:45.133Z,0
2016-10-10T02:47:45.147Z,0
2016-10-10T02:48:45.171Z,0
2016-10-10T02:49:45.192Z,0
2016-10-10T02:51:45.234Z,0
2016-10-10T02:53:00.176Z,0
2016-10-10T02:56:45.341Z,0
2016-10-10T02:57:45.355Z,0
2016-10-10T02:58:45.372Z,0
2016-10-10T02:59:45.396Z,0
2016-10-10T03:01:45.439Z,0
2016-10-10T03:02:45.455Z,0
2016-10-10T03:04:45.527Z,0
2016-10-10T03:06:00.443Z,0
2016-10-10T03:07:00.460Z,0
2016-10-10T03:07:45.552Z,0
2016-10-10T03:08:45.588Z,0
2016-10-10T03:10:00.524Z,0
2016-10-10T03:10:45.618Z,0
2016-10-10T03:11:45.638Z,0
2016-10-10T03:12:45.661Z,0
2016-10-10T03:13:45.679Z,0
2016-10-10T03:14:45.706Z,0
2016-10-10T03:15:45.724Z,0
2016-10-10T03:16:45.745Z,0
2016-10-10T03:17:45.760Z,0
2016-10-10T03:18:45.785Z,0
2016-10-10T03:19:45.812Z,0
2016-10-10T03:20:45.830Z,0
2016-10-10T03:21:45.840Z,0
2016-10-10T03:22:45.869Z,0
2016-10-10T03:23:45.882Z,0
2016-10-10T03:24:45.904Z,0
2016-10-10T03:26:00.852Z,0
2016-10-10T03:26:45.953Z,0
2016-10-10T03:27:45.978Z,0
2016-10-10T03:28:45.990Z,0
2016-10-10T03:29:46.002Z,0
2016-10-10T03:30:46.031Z,0
2016-10-10T03:31:46.355Z,0
2016-10-10T03:32:46.067Z,0
2016-10-10T03:33:46.097Z,0
2016-10-10T03:34:46.109Z,0
2016-10-10T03:35:46.135Z,0
2016-10-10T03:36:46.153Z,0
2016-10-10T03:37:46.474Z,0
2016-10-10T03:38:46.192Z,0
2016-10-10T03:40:01.132Z,0
2016-10-10T03:41:01.150Z,0
2016-10-10T03:41:46.255Z,0
2016-10-10T03:42:46.280Z,0
2016-10-10T03:43:46.302Z,0
2016-10-10T03:44:46.315Z,0
2016-10-10T03:45:46.336Z,0
2016-10-10T03:46:46.357Z,0
2016-10-10T03:47:46.388Z,0
2016-10-10T03:48:46.400Z,0
2016-10-10T03:49:46.521Z,0
2016-10-10T03:51:46.456Z,0
2016-10-10T03:53:01.399Z,0
2016-10-10T03:53:46.805Z,0
2016-10-10T03:54:46.777Z,0
2016-10-10T03:57:01.481Z,0
2016-10-10T03:57:46.579Z,0
2016-10-10T03:58:46.597Z,0
2016-10-10T03:59:46.625Z,0
2016-10-10T04:01:01.765Z,0
2016-10-10T04:01:46.661Z,0
2016-10-10T04:02:46.684Z,0
2016-10-10T04:03:46.701Z,0
2016-10-10T04:04:46.720Z,0
2016-10-10T04:06:46.771Z,0
2016-10-10T04:08:01.709Z,0
2016-10-10T04:08:46.799Z,0
2016-10-10T04:09:47.128Z,0
2016-10-10T04:10:46.853Z,0
2016-10-10T04:11:46.864Z,0
2016-10-10T04:13:01.807Z,0
2016-10-10T04:14:46.930Z,0
2016-10-10T04:15:46.947Z,0
2016-10-10T04:16:46.972Z,0
2016-10-10T04:17:46.988Z,0
2016-10-10T04:18:47.023Z,0
2016-10-10T04:20:01.956Z,0
2016-10-10T04:20:47.054Z,0
2016-10-10T04:21:47.090Z,0
2016-10-10T04:22:47.088Z,0
2016-10-10T04:24:02.044Z,0
2016-10-10T04:24:47.132Z,0
2016-10-10T04:25:47.156Z,0
2016-10-10T04:26:47.185Z,0
2016-10-10T04:27:47.207Z,0
2016-10-10T04:29:47.235Z,0
2016-10-10T04:30:47.257Z,0
2016-10-10T04:31:47.278Z,0
2016-10-10T04:32:47.298Z,0
2016-10-10T04:33:47.320Z,0
2016-10-10T04:34:47.333Z,0
2016-10-10T04:35:47.656Z,0
2016-10-10T04:37:47.400Z,0
2016-10-10T04:38:47.715Z,0
2016-10-10T04:39:47.437Z,0
2016-10-10T04:41:02.380Z,0
2016-10-10T04:41:47.730Z,0
2016-10-10T04:42:47.496Z,0
2016-10-10T04:43:47.524Z,0
2016-10-10T04:45:02.464Z,0
2016-10-10T04:45:47.559Z,0
2016-10-10T04:46:47.599Z,0
2016-10-10T04:47:47.597Z,0
2016-10-10T04:48:47.623Z,0
2016-10-10T04:49:47.638Z,0
2016-10-10T04:50:47.919Z,0
2016-10-10T04:51:47.938Z,4
2016-10-10T04:52:47.704Z,4
2016-10-10T04:53:47.723Z,0
2016-10-10T04:54:47.753Z,4
2016-10-10T04:55:47.772Z,4
2016-10-10T04:56:47.795Z,4
2016-10-10T04:57:48.101Z,8
2016-10-10T04:58:47.835Z,8
2016-10-10T04:59:47.840Z,8
2016-10-10T05:01:02.789Z,12
2016-10-10T05:01:47.882Z,12
2016-10-10T05:02:47.906Z,12
2016-10-10T05:03:47.925Z,16
2016-10-10T05:04:47.957Z,24
2016-10-10T05:05:47.963Z,28
2016-10-10T05:06:47.990Z,28
2016-10-10T05:07:48.009Z,32
2016-10-10T05:08:48.127Z,32
2016-10-10T05:09:48.048Z,36
2016-10-10T05:10:48.069Z,44
2016-10-10T05:12:03.011Z,56
2016-10-10T05:12:48.102Z,60
2016-10-10T05:13:48.128Z,76
2016-10-10T05:14:48.157Z,88
2016-10-10T05:16:03.098Z,108
2016-10-10T05:16:48.189Z,116
2016-10-10T05:18:48.224Z,144
2016-10-10T05:19:48.251Z,156
2016-10-10T05:20:48.268Z,160
2016-10-10T05:21:48.292Z,168
2016-10-10T05:22:48.311Z,176
2016-10-10T05:23:48.347Z,176
2016-10-10T05:24:48.354Z,188
2016-10-10T05:25:48.372Z,212
2016-10-10T05:27:03.312Z,248
2016-10-10T05:27:48.415Z,260
2016-10-10T05:29:48.456Z,296
2016-10-10T05:30:48.470Z,324
2016-10-10T05:31:48.502Z,336
2016-10-10T05:32:48.562Z,344
2016-10-10T05:33:48.535Z,368
2016-10-10T05:34:48.553Z,380
2016-10-10T05:35:48.578Z,380
2016-10-10T05:36:48.597Z,376
2016-10-10T05:37:48.614Z,392
2016-10-10T05:39:03.558Z,468
2016-10-10T05:40:03.578Z,528
2016-10-10T05:40:48.678Z,572
2016-10-10T05:41:49.093Z,616
2016-10-10T05:43:03.637Z,620
2016-10-10T05:43:48.735Z,592
2016-10-10T05:44:48.759Z,580
2016-10-10T05:45:48.772Z,620
2016-10-10T05:46:48.790Z,676
2016-10-10T05:48:03.735Z,744
2016-10-10T05:48:48.840Z,792
2016-10-10T05:49:48.858Z,860
2016-10-10T05:50:48.876Z,936
2016-10-10T05:51:48.906Z,1044
2016-10-10T05:52:48.916Z,1212
2016-10-10T05:53:48.953Z,1448
2016-10-10T05:54:48.950Z,1708
2016-10-10T05:55:49.230Z,2024
2016-10-10T05:56:49.240Z,2340
2016-10-10T05:58:49.030Z,6856
2016-10-10T06:00:49.073Z,6388
2016-10-10T06:02:04.020Z,2912
2016-10-10T06:02:49.117Z,2476
2016-10-10T06:04:04.065Z,2440
2016-10-10T06:04:49.160Z,2600
2016-10-10T06:06:04.348Z,2968
2016-10-10T06:06:49.202Z,3244
2016-10-10T06:07:49.233Z,3592
2016-10-10T06:08:49.543Z,4264
2016-10-10T06:09:49.258Z,4476
2016-10-10T06:10:49.285Z,11068
2016-10-10T06:11:49.302Z,20288
2016-10-10T06:12:49.323Z,22336
2016-10-10T06:14:49.365Z,22720
2016-10-10T06:15:49.387Z,23072
2016-10-10T06:16:49.412Z,22304
2016-10-10T06:18:04.352Z,24384
2016-10-10T06:18:49.459Z,24992
2016-10-10T06:20:04.396Z,24160
2016-10-10T06:20:49.507Z,23200
2016-10-10T06:21:49.529Z,25280
2016-10-10T06:22:49.552Z,27328
2016-10-10T06:23:49.573Z,27968
2016-10-10T06:24:49.603Z,26944
2016-10-10T06:27:04.568Z,26720
2016-10-10T06:27:49.668Z,25472
2016-10-10T06:28:49.688Z,25696
2016-10-10T06:29:49.715Z,28736
2016-10-10T06:30:49.738Z,27968
2016-10-10T06:31:49.771Z,29088
2016-10-10T06:32:49.796Z,29600
2016-10-10T06:34:49.838Z,24736
2016-10-10T06:36:04.785Z,16096
2016-10-10T06:36:49.886Z,21536
2016-10-10T06:37:49.920Z,20832
2016-10-10T06:38:49.939Z,14912
2016-10-10T06:39:49.972Z,10444
2016-10-10T06:40:49.990Z,9432
2016-10-10T06:41:50.016Z,14720
2016-10-10T06:42:50.051Z,9080
2016-10-10T06:43:50.079Z,10136
2016-10-10T06:44:50.096Z,11272
2016-10-10T06:45:50.114Z,11704
2016-10-10T06:46:50.139Z,16448
2016-10-10T06:47:50.167Z,12360
2016-10-10T06:49:50.213Z,10812
2016-10-10T06:51:05.204Z,14260
2016-10-10T06:51:50.267Z,10944
2016-10-10T06:52:50.286Z,12152
2016-10-10T06:54:50.336Z,15264
2016-10-10T06:55:50.362Z,13148
2016-10-10T06:57:50.412Z,11460
2016-10-10T06:58:50.431Z,6372
2016-10-10T06:59:50.452Z,5424
2016-10-10T07:00:50.493Z,4748
2016-10-10T07:01:50.501Z,4436
2016-10-10T07:03:05.448Z,4304
2016-10-10T07:04:05.473Z,4220
2016-10-10T07:04:50.827Z,4288
2016-10-10T07:06:05.522Z,4840
2016-10-10T07:06:50.626Z,5304
2016-10-10T07:08:50.673Z,6036
2016-10-10T07:09:50.689Z,6420
2016-10-10T07:10:50.713Z,6636
2016-10-10T07:11:50.740Z,6792
2016-10-10T07:12:50.763Z,6700
2016-10-10T07:13:50.785Z,7496
2016-10-10T07:15:51.082Z,21600
2016-10-10T07:16:50.852Z,13604
2016-10-10T07:17:50.880Z,10164
2016-10-10T07:19:05.822Z,9164
2016-10-10T07:20:05.844Z,9748
2016-10-10T07:20:50.950Z,9980
2016-10-10T07:21:51.970Z,9732
2016-10-10T07:23:05.916Z,9456
2016-10-10T07:23:51.018Z,8992
2016-10-10T07:24:51.044Z,8632
2016-10-10T07:25:51.071Z,8056
2016-10-10T07:26:51.088Z,7176
2016-10-10T07:27:51.119Z,6696
2016-10-10T07:28:51.128Z,6688
2016-10-10T07:29:51.157Z,6608
2016-10-10T07:30:51.182Z,6328
2016-10-10T07:31:51.453Z,5756
2016-10-10T07:32:51.222Z,5168
2016-10-10T07:33:51.241Z,4936
2016-10-10T07:34:51.282Z,4668
2016-10-10T07:35:51.292Z,4496
2016-10-10T07:39:06.283Z,4728
2016-10-10T07:39:51.385Z,5092
2016-10-10T07:40:51.405Z,4976
2016-10-10T07:41:51.427Z,4908
2016-10-10T07:42:51.454Z,4644
2016-10-10T07:43:51.470Z,4384
2016-10-10T07:44:51.500Z,4164
2016-10-10T07:45:51.524Z,3928
2016-10-10T07:46:51.552Z,3836
2016-10-10T07:47:51.565Z,3924
2016-10-10T07:48:51.594Z,3920
2016-10-10T07:49:51.614Z,3724
2016-10-10T07:51:51.661Z,3288
2016-10-10T07:52:51.770Z,3372
2016-10-10T07:54:06.627Z,3680
2016-10-10T07:56:51.774Z,3380
2016-10-10T07:57:51.797Z,3108
2016-10-10T07:58:51.818Z,2912
2016-10-10T07:59:51.843Z,2768
2016-10-10T08:01:06.789Z,2584
2016-10-10T08:01:51.884Z,2440
2016-10-10T08:02:51.908Z,2196
2016-10-10T08:04:52.277Z,1852
2016-10-10T08:05:51.975Z,1768
2016-10-10T08:06:51.992Z,1724
2016-10-10T08:08:06.940Z,1824
2016-10-10T08:08:52.045Z,1932
2016-10-10T08:10:06.983Z,2044
2016-10-10T08:11:07.012Z,2144
2016-10-10T08:11:52.107Z,2268
2016-10-10T08:12:52.135Z,2412
2016-10-10T08:13:52.399Z,2572
2016-10-10T08:14:52.181Z,2784
2016-10-10T08:15:52.450Z,3044
2016-10-10T08:16:52.221Z,3316
2016-10-10T08:17:52.247Z,3664
2016-10-10T08:19:07.192Z,4004
2016-10-10T08:19:52.287Z,4220
2016-10-10T08:20:52.322Z,4664
2016-10-10T08:21:52.332Z,5220
2016-10-10T08:22:52.406Z,5948
2016-10-10T08:23:52.387Z,6604
2016-10-10T08:26:07.346Z,8576
2016-10-10T08:26:52.445Z,8220
2016-10-10T08:27:52.465Z,8492
2016-10-10T08:29:52.518Z,8232
2016-10-10T08:30:52.550Z,8108
2016-10-10T08:31:52.558Z,8172
2016-10-10T08:32:52.584Z,8096
2016-10-10T08:35:52.650Z,7656
2016-10-10T08:36:52.671Z,7304
2016-10-10T08:37:52.695Z,7060
2016-10-10T08:38:52.715Z,7376
2016-10-10T08:39:52.746Z,8088
2016-10-10T08:40:52.767Z,13860
2016-10-10T08:41:52.789Z,22816
2016-10-10T08:42:52.808Z,23232
2016-10-10T08:43:52.833Z,23776
2016-10-10T08:45:52.899Z,24320
2016-10-10T08:47:07.828Z,20000
2016-10-10T08:47:52.925Z,20992
2016-10-10T08:48:52.945Z,13864
2016-10-10T08:49:52.974Z,20160
2016-10-10T08:50:52.993Z,14564
2016-10-10T08:51:53.272Z,20096
2016-10-10T08:52:53.147Z,19264
2016-10-10T08:53:53.065Z,21632
2016-10-10T08:55:08.011Z,19040
2016-10-10T08:55:53.120Z,11640
2016-10-10T08:56:53.141Z,12692
2016-10-10T08:58:08.085Z,22080
2016-10-10T08:58:53.194Z,18688
2016-10-10T09:00:08.384Z,21888
2016-10-10T09:00:53.242Z,22720
2016-10-10T09:01:53.261Z,21696
2016-10-10T09:02:53.289Z,17664
2016-10-10T09:03:53.312Z,14604
2016-10-10T09:04:53.337Z,14120
2016-10-10T09:05:53.363Z,18592
2016-10-10T09:06:53.396Z,9920
2016-10-10T09:07:53.410Z,7964
2016-10-10T09:08:53.440Z,7456
2016-10-10T09:09:53.710Z,9300
2016-10-10T09:10:53.486Z,7720
2016-10-10T09:12:53.534Z,6404
2016-10-10T09:14:08.478Z,6288
2016-10-10T09:14:53.581Z,6876
2016-10-10T09:15:53.601Z,6880
2016-10-10T09:16:53.627Z,7032
2016-10-10T09:17:53.658Z,7184
2016-10-10T09:18:53.675Z,7200
2016-10-10T09:19:53.702Z,7588
2016-10-10T09:20:53.732Z,7824
2016-10-10T09:21:54.001Z,8168
2016-10-10T09:22:53.776Z,8172
2016-10-10T09:23:53.805Z,7664
2016-10-10T09:24:53.823Z,7708
2016-10-10T09:25:53.849Z,7840
2016-10-10T09:27:53.896Z,7720
2016-10-10T09:29:08.856Z,7152
2016-10-10T09:30:08.869Z,6780
2016-10-10T09:30:53.974Z,6836
2016-10-10T09:31:53.989Z,8664
2016-10-10T09:32:54.019Z,7660
2016-10-10T09:33:54.040Z,7208
2016-10-10T09:34:54.066Z,6792
2016-10-10T09:35:54.089Z,6340
2016-10-10T09:36:54.121Z,5804
2016-10-10T09:37:54.139Z,5416
2016-10-10T09:38:54.163Z,5104
2016-10-10T09:39:54.191Z,4976
2016-10-10T09:40:54.210Z,4772
2016-10-10T09:41:54.230Z,4984
2016-10-10T09:42:54.251Z,13980
2016-10-10T09:43:54.283Z,14388
2016-10-10T09:44:54.303Z,14396
2016-10-10T09:46:09.501Z,14532
2016-10-10T09:46:54.354Z,14076
2016-10-10T09:47:54.369Z,14852
2016-10-10T09:48:54.402Z,14620
2016-10-10T09:49:54.427Z,6604
2016-10-10T09:51:09.371Z,6204
2016-10-10T09:51:54.471Z,8500
2016-10-10T09:53:09.417Z,6036
2016-10-10T09:53:54.510Z,6044
2016-10-10T09:54:54.546Z,5928
2016-10-10T09:56:09.485Z,6020
2016-10-10T09:57:09.508Z,6280
2016-10-10T09:58:54.638Z,15056
2016-10-10T09:59:54.655Z,14880
2016-10-10T10:01:09.601Z,14840
2016-10-10T10:01:54.704Z,14848
2016-10-10T10:02:55.735Z,14604
2016-10-10T10:03:54.757Z,14240
2016-10-10T10:04:54.779Z,13848
2016-10-10T10:05:54.803Z,13768
2016-10-10T10:06:55.097Z,13560
2016-10-10T10:07:54.856Z,12944
2016-10-10T10:09:09.797Z,13392
2016-10-10T10:09:54.897Z,12928
2016-10-10T10:10:54.922Z,13168
2016-10-10T10:11:54.946Z,12992
2016-10-10T10:13:54.985Z,7172
2016-10-10T10:14:55.017Z,10896
2016-10-10T10:15:55.287Z,10512
2016-10-10T10:16:55.061Z,9984
2016-10-10T10:17:55.085Z,6792
2016-10-10T10:18:55.117Z,5084
2016-10-10T10:19:55.147Z,5452
2016-10-10T10:20:55.161Z,6248
2016-10-10T10:21:55.182Z,8488
2016-10-10T10:22:55.206Z,7080
2016-10-10T10:23:55.232Z,5196
2016-10-10T10:24:55.257Z,5108
2016-10-10T10:25:55.291Z,6868
2016-10-10T10:27:10.223Z,4804
2016-10-10T10:27:55.318Z,4816
2016-10-10T10:28:55.342Z,4884
2016-10-10T10:30:10.294Z,6760
2016-10-10T10:31:10.614Z,6332
2016-10-10T10:31:55.416Z,6104
2016-10-10T10:33:10.361Z,6044
2016-10-10T10:33:55.459Z,4636
2016-10-10T10:34:55.483Z,4428
2016-10-10T10:35:55.507Z,4472
2016-10-10T10:36:55.537Z,4452
2016-10-10T10:37:55.566Z,4460
2016-10-10T10:38:55.575Z,4652
2016-10-10T10:40:10.527Z,4748
2016-10-10T10:40:55.628Z,4904
2016-10-10T10:41:55.649Z,5264
2016-10-10T10:43:10.594Z,5784
2016-10-10T10:44:10.620Z,7024
2016-10-10T10:44:55.735Z,5972
2016-10-10T10:45:55.741Z,5952
2016-10-10T10:46:55.770Z,5692
2016-10-10T10:49:10.733Z,5876
2016-10-10T10:49:55.837Z,5828
2016-10-10T10:50:55.857Z,5708
2016-10-10T10:51:55.890Z,5684
2016-10-10T10:53:55.930Z,6372
2016-10-10T10:54:55.952Z,6868
2016-10-10T10:55:55.973Z,6872
2016-10-10T10:56:56.000Z,6712
2016-10-10T10:57:56.465Z,6708
2016-10-10T10:58:56.039Z,6988
2016-10-10T10:59:56.063Z,7024
2016-10-10T11:01:11.009Z,7136
2016-10-10T11:02:11.031Z,6956
2016-10-10T11:02:56.145Z,6800
2016-10-10T11:05:11.105Z,6304
2016-10-10T11:05:56.207Z,5752
2016-10-10T11:07:56.755Z,5264
2016-10-10T11:08:56.271Z,5960
2016-10-10T11:09:56.309Z,5156
2016-10-10T11:11:11.250Z,6032
2016-10-10T11:11:56.351Z,4996
2016-10-10T11:12:56.371Z,4856
2016-10-10T11:14:11.318Z,4868
2016-10-10T11:14:56.417Z,4804
2016-10-10T11:15:56.443Z,4708
2016-10-10T11:16:56.482Z,4992
2016-10-10T11:17:56.491Z,4456
2016-10-10T11:18:56.517Z,4576
2016-10-10T11:20:11.449Z,4744
2016-10-10T11:21:56.583Z,5056
2016-10-10T11:22:56.855Z,5184
2016-10-10T11:23:56.631Z,5364
2016-10-10T11:24:56.649Z,5428
2016-10-10T11:25:56.984Z,6672
2016-10-10T11:27:56.972Z,5444
2016-10-10T11:28:56.746Z,5764
2016-10-10T11:30:11.689Z,5704
2016-10-10T11:30:56.789Z,6888
2016-10-10T11:32:11.738Z,5644
2016-10-10T11:32:56.841Z,5600
2016-10-10T11:33:56.866Z,5544
2016-10-10T11:35:11.799Z,5524
2016-10-10T11:36:11.832Z,5552
2016-10-10T11:36:56.928Z,5468
2016-10-10T11:38:56.983Z,5572
2016-10-10T11:39:57.002Z,7164
2016-10-10T11:40:57.031Z,7648
2016-10-10T11:41:57.304Z,7948
2016-10-10T11:42:57.071Z,8192
2016-10-10T11:43:57.095Z,6860
2016-10-10T11:44:57.117Z,6732
2016-10-10T11:45:57.146Z,6588
2016-10-10T11:46:57.163Z,6528
2016-10-10T11:47:57.572Z,6400
2016-10-10T11:49:12.138Z,6212
2016-10-10T11:49:57.235Z,6072
2016-10-10T11:50:57.257Z,5892
2016-10-10T11:51:57.290Z,5876
2016-10-10T11:52:57.305Z,5312
2016-10-10T11:53:57.333Z,5116
2016-10-10T11:54:57.358Z,6348
2016-10-10T11:55:57.379Z,4572
2016-10-10T11:56:57.400Z,4308
2016-10-10T11:57:57.427Z,4116
2016-10-10T11:58:57.468Z,3932
2016-10-10T12:00:12.396Z,3804
2016-10-10T12:00:57.499Z,3724
2016-10-10T12:01:57.519Z,3636
2016-10-10T12:02:57.541Z,3532
2016-10-10T12:03:57.569Z,3464
2016-10-10T12:04:57.596Z,3472
2016-10-10T12:06:12.549Z,3572
2016-10-10T12:06:57.641Z,3668
2016-10-10T12:08:12.589Z,3856
2016-10-10T12:08:57.699Z,3972
2016-10-10T12:09:57.707Z,4088
2016-10-10T12:10:58.042Z,4172
2016-10-10T12:11:57.764Z,4188
2016-10-10T12:12:57.777Z,4360
2016-10-10T12:13:57.809Z,4536
2016-10-10T12:14:57.829Z,4596
2016-10-10T12:15:57.858Z,4592
2016-10-10T12:16:57.873Z,4492
2016-10-10T12:17:57.906Z,4308
2016-10-10T12:18:58.125Z,4040
2016-10-10T12:19:57.950Z,3832
2016-10-10T12:21:12.890Z,3588
2016-10-10T12:22:12.918Z,3388
2016-10-10T12:22:58.020Z,3240
2016-10-10T12:24:12.962Z,3080
2016-10-10T12:24:58.065Z,3012
2016-10-10T12:25:58.088Z,2920
2016-10-10T12:26:58.113Z,2820
2016-10-10T12:27:58.139Z,2752
2016-10-10T12:28:58.457Z,2744
2016-10-10T12:30:58.211Z,2680
2016-10-10T12:31:58.230Z,2596
2016-10-10T12:32:58.249Z,2476
2016-10-10T12:33:58.273Z,2240
2016-10-10T12:34:58.304Z,1920
2016-10-10T12:35:58.330Z,1816
2016-10-10T12:37:13.266Z,1984
2016-10-10T12:37:58.376Z,2076
2016-10-10T12:38:58.399Z,2180
2016-10-10T12:40:13.336Z,2320
2016-10-10T12:41:58.464Z,2460
2016-10-10T12:42:58.571Z,2504
2016-10-10T12:43:58.511Z,2532
2016-10-10T12:45:58.560Z,2648
2016-10-10T12:46:58.577Z,2660
2016-10-10T12:47:58.607Z,2616
2016-10-10T12:49:13.549Z,2784
2016-10-10T12:49:58.647Z,2828
2016-10-10T12:51:13.593Z,2824
2016-10-10T12:51:58.692Z,2780
2016-10-10T12:52:58.717Z,2784
2016-10-10T12:54:13.658Z,2780
2016-10-10T12:54:59.070Z,2964
2016-10-10T12:56:58.817Z,3172
2016-10-10T12:58:58.858Z,3376
2016-10-10T12:59:58.881Z,3436
2016-10-10T13:00:58.907Z,3504
2016-10-10T13:01:58.928Z,3564
2016-10-10T13:02:58.947Z,3568
2016-10-10T13:03:58.978Z,3700
2016-10-10T13:04:58.992Z,3988
2016-10-10T13:05:59.017Z,4028
2016-10-10T13:07:14.219Z,3884
2016-10-10T13:08:13.986Z,3720
2016-10-10T13:08:59.087Z,3672
2016-10-10T13:09:59.115Z,3512
2016-10-10T13:11:14.065Z,3352
2016-10-10T13:11:59.163Z,3436
2016-10-10T13:12:59.188Z,3420
2016-10-10T13:13:59.213Z,3284
2016-10-10T13:14:59.234Z,3164
2016-10-10T13:15:59.252Z,3108
2016-10-10T13:16:59.279Z,3172
2016-10-10T13:17:59.296Z,3252
2016-10-10T13:18:59.320Z,3392
2016-10-10T13:19:59.349Z,3528
2016-10-10T13:20:59.371Z,3640
2016-10-10T13:21:59.392Z,3672
2016-10-10T13:22:59.415Z,3560
2016-10-10T13:24:59.461Z,3232
2016-10-10T13:25:59.489Z,3208
2016-10-10T13:26:59.509Z,3276
2016-10-10T13:27:59.535Z,3360
2016-10-10T13:28:59.560Z,3388
2016-10-10T13:29:59.574Z,3524
2016-10-10T13:30:59.621Z,3480
2016-10-10T13:31:59.875Z,3216
2016-10-10T13:32:59.647Z,3308
2016-10-10T13:34:14.593Z,3708
2016-10-10T13:34:59.688Z,3968
2016-10-10T13:35:59.715Z,4068
2016-10-10T13:36:59.740Z,4024
2016-10-10T13:37:59.763Z,3916
2016-10-10T13:38:59.774Z,3844
2016-10-10T13:39:59.811Z,3684
2016-10-10T13:40:59.841Z,3520
2016-10-10T13:41:59.853Z,3368
2016-10-10T13:43:14.797Z,3160
2016-10-10T13:43:59.896Z,3152
2016-10-10T13:45:59.941Z,2768
2016-10-10T13:46:59.968Z,2724
2016-10-10T13:49:00.017Z,2664
2016-10-10T13:50:00.035Z,2588
2016-10-10T13:51:14.985Z,2512
2016-10-10T13:53:00.110Z,2544
2016-10-10T13:54:00.124Z,2632
2016-10-10T13:55:15.072Z,2688
2016-10-10T13:56:00.168Z,2928
2016-10-10T13:57:00.211Z,2864
2016-10-10T13:58:00.216Z,2944
2016-10-10T13:59:15.165Z,3040
2016-10-10T14:00:00.272Z,3108
2016-10-10T14:01:00.292Z,3228
2016-10-10T14:02:00.314Z,3304
2016-10-10T14:03:00.333Z,3336
2016-10-10T14:04:00.361Z,3344
2016-10-10T14:05:00.383Z,3324
2016-10-10T14:06:00.402Z,3252
2016-10-10T14:07:00.430Z,3216
2016-10-10T14:08:00.450Z,3140
2016-10-10T14:09:00.472Z,3120
2016-10-10T14:10:15.415Z,3132
2016-10-10T14:11:15.438Z,3124
2016-10-10T14:12:00.550Z,3088
2016-10-10T14:13:00.566Z,3084
2016-10-10T14:14:01.587Z,3136
2016-10-10T14:15:15.530Z,3296
2016-10-10T14:16:00.635Z,3352
2016-10-10T14:17:00.665Z,3324
2016-10-10T14:18:00.680Z,3320
2016-10-10T14:19:00.946Z,3408
2016-10-10T14:20:00.768Z,5236
2016-10-10T14:21:00.748Z,5332
2016-10-10T14:22:00.769Z,4252
2016-10-10T14:23:00.791Z,4132
2016-10-10T14:24:00.828Z,4296
2016-10-10T14:25:00.836Z,3264
2016-10-10T14:26:00.862Z,3348
2016-10-10T14:27:15.804Z,4772
2016-10-10T14:28:00.909Z,4616
2016-10-10T14:29:00.930Z,3980
2016-10-10T14:30:00.953Z,4140
2016-10-10T14:31:16.147Z,3336
2016-10-10T14:32:01.001Z,3824
2016-10-10T14:33:01.032Z,3424
2016-10-10T14:34:01.051Z,3332
2016-10-10T14:35:01.057Z,3296
2016-10-10T14:36:01.087Z,3312
2016-10-10T14:37:01.116Z,3420
2016-10-10T14:38:01.136Z,3532
2016-10-10T14:39:01.410Z,3628
2016-10-10T14:40:01.180Z,4808
2016-10-10T14:42:01.225Z,4488
2016-10-10T14:43:01.553Z,5136
2016-10-10T14:44:16.190Z,5228
2016-10-10T14:45:01.301Z,5264
2016-10-10T14:46:16.492Z,4900
2016-10-10T14:47:01.346Z,5012
2016-10-10T14:48:01.368Z,4696
2016-10-10T14:49:01.390Z,4532
2016-10-10T14:50:01.433Z,3896
2016-10-10T14:52:01.471Z,2628
2016-10-10T14:53:01.482Z,2472
2016-10-10T14:54:16.429Z,2520